createdAt,value
2018-08-19T00:01:10.096Z,20.80
2018-08-19T00:06:14.864Z,20.80
2018-08-19T00:11:21.307Z,20.70
2018-08-19T00:16:26.126Z,20.60
2018-08-19T00:21:31.068Z,20.50
2018-08-19T00:26:35.816Z,20.40
2018-08-19T00:31:40.641Z,20.40
2018-08-19T00:36:45.604Z,20.40
2018-08-19T00:41:57.119Z,20.30
2018-08-19T00:47:01.846Z,20.30
2018-08-19T00:52:07.907Z,20.20
2018-08-19T00:57:12.600Z,20.10
2018-08-19T01:02:17.434Z,19.90
2018-08-19T01:07:22.080Z,19.80
2018-08-19T01:12:27.054Z,19.80
2018-08-19T01:17:42.157Z,19.60
2018-08-19T01:22:47.113Z,19.50
2018-08-19T01:27:52.818Z,19.30
2018-08-19T01:32:57.506Z,19.30
2018-08-19T01:38:02.527Z,19.10
2018-08-19T01:43:07.341Z,18.90
2018-08-19T01:48:12.467Z,18.80
2018-08-19T01:53:17.200Z,18.90
2018-08-19T01:58:22.334Z,18.80
2018-08-19T02:03:27.436Z,18.80
2018-08-19T02:08:32.851Z,18.90
2018-08-19T02:13:37.598Z,18.60
2018-08-19T02:18:44.313Z,18.40
2018-08-19T02:23:49.208Z,18.10
2018-08-19T02:28:53.814Z,18.00
2018-08-19T02:33:58.656Z,18.00
2018-08-19T02:39:03.525Z,17.90
2018-08-19T02:44:08.245Z,17.90
2018-08-19T02:49:13.749Z,18.00
2018-08-19T02:54:18.558Z,18.10
2018-08-19T02:59:23.163Z,18.00
2018-08-19T03:04:28.137Z,18.00
2018-08-19T03:09:32.949Z,18.10
2018-08-19T03:14:37.581Z,18.10
2018-08-19T03:19:42.391Z,18.10
2018-08-19T03:24:47.274Z,18.10
2018-08-19T03:29:56.274Z,18.00
2018-08-19T03:35:06.985Z,17.80
2018-08-19T03:40:11.638Z,17.90
2018-08-19T03:45:20.953Z,17.80
2018-08-19T03:50:26.675Z,17.80
2018-08-19T03:55:32.237Z,17.80
2018-08-19T04:00:39.012Z,17.70
2018-08-19T04:05:47.451Z,17.70
2018-08-19T04:10:52.751Z,17.60
2018-08-19T04:15:58.739Z,17.50
2018-08-19T04:21:06.898Z,17.40
2018-08-19T04:26:11.525Z,17.50
2018-08-19T04:31:21.264Z,17.40
2018-08-19T04:36:26.025Z,17.30
2018-08-19T04:41:30.890Z,17.30
2018-08-19T04:46:35.935Z,17.40
2018-08-19T04:51:40.779Z,17.50
2018-08-19T04:56:45.602Z,17.50
2018-08-19T05:01:50.288Z,17.60
2018-08-19T05:06:55.667Z,17.60
2018-08-19T05:12:01.025Z,17.70
2018-08-19T05:17:05.961Z,17.80
2018-08-19T05:22:13.261Z,17.80
2018-08-19T05:27:17.879Z,17.90
2018-08-19T05:32:22.740Z,18.10
2018-08-19T05:37:27.683Z,18.30
2018-08-19T05:42:32.406Z,18.40
2018-08-19T05:47:37.247Z,18.50
2018-08-19T05:52:41.845Z,18.70
2018-08-19T05:57:46.835Z,18.90
2018-08-19T06:02:52.445Z,19.20
2018-08-19T06:08:02.345Z,19.50
2018-08-19T06:13:07.925Z,19.70
2018-08-19T06:18:12.870Z,19.90
2018-08-19T06:23:18.078Z,20.10
2018-08-19T06:28:22.775Z,20.30
2018-08-19T06:33:27.970Z,20.40
2018-08-19T06:38:32.695Z,20.70
2018-08-19T06:43:37.411Z,20.90
2018-08-19T06:48:42.157Z,21.10
2018-08-19T06:53:46.868Z,21.20
2018-08-19T06:58:51.519Z,21.30
2018-08-19T07:03:56.777Z,21.50
2018-08-19T07:09:01.850Z,21.70
2018-08-19T07:14:06.705Z,21.60
2018-08-19T07:19:11.405Z,21.50
2018-08-19T07:24:16.353Z,21.40
2018-08-19T07:29:20.866Z,21.60
2018-08-19T07:34:25.819Z,21.60
2018-08-19T07:39:31.015Z,21.70
2018-08-19T07:44:36.226Z,21.90
2018-08-19T07:49:41.459Z,21.90
2018-08-19T07:54:46.180Z,22.00
2018-08-19T07:59:51.516Z,22.10
2018-08-19T08:04:56.907Z,22.20
2018-08-19T08:10:01.838Z,22.30
2018-08-19T08:15:10.784Z,22.20
2018-08-19T08:20:15.689Z,22.30
2018-08-19T08:25:20.569Z,22.60
2018-08-19T08:30:25.281Z,22.80
2018-08-19T08:35:30.482Z,23.00
2018-08-19T08:40:36.127Z,22.70
2018-08-19T08:45:42.308Z,22.90
2018-08-19T08:50:47.030Z,23.10
2018-08-19T08:56:04.734Z,23.20
2018-08-19T09:01:10.033Z,23.20
2018-08-19T09:06:34.257Z,23.30
2018-08-19T09:11:39.101Z,23.40
2018-08-19T09:16:44.433Z,23.40
2018-08-19T09:21:49.203Z,23.80
2018-08-19T09:26:54.489Z,24.00
2018-08-19T09:32:00.081Z,24.00
2018-08-19T09:37:05.065Z,24.10
2018-08-19T09:42:14.528Z,23.90
2018-08-19T09:47:19.585Z,23.90
2018-08-19T09:52:24.540Z,24.40
2018-08-19T09:57:31.634Z,24.40
2018-08-19T10:02:40.651Z,24.30
2018-08-19T10:07:45.480Z,24.70
2018-08-19T10:12:50.213Z,24.80
2018-08-19T10:17:54.963Z,24.60
2018-08-19T10:23:01.915Z,25.20
2018-08-19T10:28:08.425Z,25.40
2018-08-19T10:33:13.661Z,25.60
2018-08-19T10:38:19.021Z,25.40
2018-08-19T10:43:24.065Z,25.40
2018-08-19T10:48:28.785Z,25.30
2018-08-19T10:53:33.592Z,26.10
2018-08-19T10:58:45.672Z,26.00
2018-08-19T11:03:50.472Z,26.80
2018-08-19T11:08:56.835Z,26.90
2018-08-19T11:14:06.242Z,26.90
2018-08-19T11:19:11.141Z,27.00
2018-08-19T11:24:26.927Z,27.30
2018-08-19T11:29:35.015Z,27.00
2018-08-19T11:34:39.853Z,28.00
2018-08-19T11:39:44.938Z,28.90
2018-08-19T11:44:49.755Z,30.10
2018-08-19T11:49:54.326Z,30.70
2018-08-19T11:54:58.792Z,32.00
2018-08-19T12:00:04.456Z,32.00
2018-08-19T12:05:09.284Z,33.20
2018-08-19T12:10:14.770Z,33.00
2018-08-19T12:15:20.032Z,33.10
2018-08-19T12:20:42.071Z,33.30
2018-08-19T12:25:46.901Z,32.70
2018-08-19T12:30:51.509Z,33.20
2018-08-19T12:35:58.136Z,33.10
2018-08-19T12:41:05.523Z,33.70
2018-08-19T12:46:10.461Z,33.40
2018-08-19T12:51:15.217Z,34.60
2018-08-19T12:56:19.986Z,34.00
2018-08-19T13:01:24.520Z,33.10
2018-08-19T13:06:30.338Z,32.90
2018-08-19T13:11:35.161Z,33.40
2018-08-19T13:16:39.953Z,33.70
2018-08-19T13:21:44.901Z,33.40
2018-08-19T13:26:49.860Z,33.10
2018-08-19T13:31:54.709Z,33.40
2018-08-19T13:36:59.482Z,31.60
2018-08-19T13:42:05.467Z,32.80
2018-08-19T13:47:10.268Z,35.00
2018-08-19T13:52:15.031Z,33.60
2018-08-19T13:57:19.672Z,33.80
2018-08-19T14:02:24.529Z,34.70
2018-08-19T14:07:29.371Z,35.20
2018-08-19T14:12:34.326Z,34.30
2018-08-19T14:17:39.067Z,33.60
2018-08-19T14:22:43.695Z,34.00
2018-08-19T14:27:48.701Z,34.40
2018-08-19T14:32:53.488Z,34.50
2018-08-19T14:37:58.460Z,35.20
2018-08-19T14:43:03.820Z,35.20
2018-08-19T14:48:09.151Z,35.30
2018-08-19T14:53:14.711Z,34.50
2018-08-19T14:58:19.973Z,34.10
2018-08-19T15:03:25.193Z,34.50
2018-08-19T15:08:31.324Z,34.70
2018-08-19T15:13:36.144Z,36.20
2018-08-19T15:18:42.397Z,37.10
2018-08-19T15:23:47.970Z,35.50
2018-08-19T15:28:53.417Z,35.10
2018-08-19T15:33:58.557Z,35.60
2018-08-19T15:39:04.141Z,35.50
2018-08-19T15:44:08.979Z,36.20
2018-08-19T15:49:14.263Z,36.20
2018-08-19T15:54:19.316Z,35.40
2018-08-19T15:59:23.992Z,35.40
2018-08-19T16:04:30.211Z,34.90
2018-08-19T16:09:35.410Z,34.80
2018-08-19T16:14:40.551Z,34.70
2018-08-19T16:19:45.323Z,34.80
2018-08-19T16:24:50.389Z,34.90
2018-08-19T16:29:54.933Z,34.80
2018-08-19T16:34:59.931Z,34.10
2018-08-19T16:40:05.636Z,33.60
2018-08-19T16:45:12.146Z,31.70
2018-08-19T16:50:17.014Z,32.10
2018-08-19T16:55:21.841Z,32.80
2018-08-19T17:00:26.807Z,33.20
2018-08-19T17:05:33.423Z,34.00
2018-08-19T17:10:39.312Z,33.90
2018-08-19T17:15:44.046Z,33.30
2018-08-19T17:20:48.984Z,31.70
2018-08-19T17:25:54.173Z,30.20
2018-08-19T17:30:59.741Z,29.60
2018-08-19T17:36:04.884Z,29.10
2018-08-19T17:41:09.486Z,28.70
2018-08-19T17:46:15.709Z,28.30
2018-08-19T17:51:31.969Z,28.00
2018-08-19T17:56:36.704Z,27.80
2018-08-19T18:01:43.182Z,27.50
2018-08-19T18:06:48.029Z,27.20
2018-08-19T18:11:59.743Z,27.10
2018-08-19T18:17:04.519Z,26.90
2018-08-19T18:22:09.178Z,26.60
2018-08-19T18:27:13.804Z,26.30
2018-08-19T18:32:18.825Z,26.20
2018-08-19T18:37:23.534Z,26.10
2018-08-19T18:42:37.946Z,26.10
2018-08-19T18:47:48.807Z,26.00
2018-08-19T18:52:54.065Z,25.90
2018-08-19T18:57:59.456Z,25.80
2018-08-19T19:03:04.380Z,25.80
2018-08-19T19:08:13.189Z,25.80
2018-08-19T19:13:20.322Z,25.90
2018-08-19T19:18:25.011Z,25.80
2018-08-19T19:23:38.482Z,25.90
2018-08-19T19:28:43.806Z,25.70
2018-08-19T19:33:48.572Z,25.70
2018-08-19T19:38:57.203Z,25.70
2018-08-19T19:44:20.029Z,25.70
2018-08-19T19:49:25.873Z,25.60
2018-08-19T19:54:31.785Z,25.50
2018-08-19T19:59:36.403Z,25.50
2018-08-19T20:04:41.028Z,25.50
2018-08-19T20:09:45.846Z,25.50
2018-08-19T20:14:51.041Z,25.50
2018-08-19T20:19:55.872Z,25.20
2018-08-19T20:25:00.720Z,25.30
2018-08-19T20:30:05.781Z,25.20
2018-08-19T20:35:10.968Z,24.90
2018-08-19T20:40:16.174Z,24.70
2018-08-19T20:45:21.600Z,24.60
2018-08-19T20:50:26.444Z,24.50
2018-08-19T20:55:31.141Z,24.50
2018-08-19T21:00:36.188Z,24.60
2018-08-19T21:05:41.050Z,24.80
2018-08-19T21:10:46.836Z,25.00
2018-08-19T21:15:53.897Z,25.10
2018-08-19T21:20:59.994Z,25.00
2018-08-19T21:26:05.453Z,25.00
2018-08-19T21:31:10.467Z,25.00
2018-08-19T21:36:16.202Z,25.00
2018-08-19T21:41:21.084Z,24.90
2018-08-19T21:46:25.919Z,24.70
2018-08-19T21:51:30.667Z,24.40
2018-08-19T21:56:35.922Z,24.30
2018-08-19T22:01:47.430Z,24.10
2018-08-19T22:06:52.202Z,24.00
2018-08-19T22:11:58.318Z,23.90
2018-08-19T22:17:10.992Z,23.80
2018-08-19T22:22:15.983Z,23.80
2018-08-19T22:27:20.719Z,23.80
2018-08-19T22:32:25.564Z,23.90
2018-08-19T22:37:31.473Z,23.70
2018-08-19T22:42:36.962Z,23.60
2018-08-19T22:47:41.716Z,23.50
2018-08-19T22:52:46.785Z,23.30
2018-08-19T22:57:51.664Z,23.20
2018-08-19T23:02:56.903Z,23.20
2018-08-19T23:08:01.760Z,23.00
2018-08-19T23:14:20.033Z,22.80
2018-08-19T23:19:24.839Z,22.80
2018-08-19T23:24:29.728Z,22.70
2018-08-19T23:29:34.540Z,22.80
2018-08-19T23:34:39.234Z,22.60
2018-08-19T23:39:44.056Z,22.30
2018-08-19T23:44:48.698Z,22.10
2018-08-19T23:49:53.348Z,22.10
2018-08-19T23:54:58.095Z,22.00
